Time;durP1;ratioP1;P1;durP2;ratioP2;P2;SDS_P1;SDS_P2;PMS_P1;PMS_P2;Temp;Humidity;BMP_temperature;BMP_pressure;BME280_temperature;BME280_humidity;BME280_pressure;Samples;Min_cycle;Max_cycle;Signal;HPM_P1;HPM_P2
2022/08/12 04:02:15;;;;;;;0.30;0.30;;;;;;;20.35;66.30;101322.88;5058071;28;20090;-83
2022/08/12 04:04:44;;;;;;;0.45;0.45;;;;;;;20.41;66.72;101345.22;5053288;28;20025;-83
2022/08/12 04:07:10;;;;;;;0.45;0.45;;;;;;;20.52;66.98;101345.22;5053536;28;20039;-83
2022/08/12 04:09:41;;;;;;;0.47;0.40;;;;;;;20.61;66.27;101326.94;5052615;28;20028;-83
2022/08/12 04:14:52;;;;;;;1.75;1.00;;;;;;;20.78;65.21;101343.16;5071000;28;20047;-83
2022/08/12 04:17:18;;;;;;;0.30;0.30;;;;;;;20.75;65.08;101344.25;5069336;28;20032;-82
2022/08/12 04:19:46;;;;;;;0.30;0.30;;;;;;;20.61;65.00;101315.59;5069502;28;20036;-83
2022/08/12 04:22:12;;;;;;;0.40;0.40;;;;;;;20.74;65.12;101349.59;5051830;28;20095;-91
2022/08/12 04:24:38;;;;;;;1.05;0.77;;;;;;;20.71;64.91;101348.06;5051795;28;20489;-85
2022/08/12 04:27:07;;;;;;;1.05;0.80;;;;;;;20.64;64.69;101352.13;5052615;28;20032;-83
2022/08/12 04:29:33;;;;;;;0.70;0.70;;;;;;;20.58;64.54;101336.88;5052818;28;20103;-84
2022/08/12 04:31:58;;;;;;;0.35;0.35;;;;;;;20.59;65.51;101364.81;5052702;28;20545;-83
2022/08/12 04:34:24;;;;;;;0.63;0.63;;;;;;;20.85;64.06;101349.59;5052280;28;20035;-84
2022/08/12 04:36:50;;;;;;;0.57;0.50;;;;;;;20.85;64.20;101352.25;5087307;28;20195;-84
2022/08/12 04:39:15;;;;;;;0.47;0.47;;;;;;;20.87;64.49;101355.56;5035949;28;20032;-84
2022/08/12 04:41:41;;;;;;;2.25;2.05;;;;;;;20.75;64.13;101339.00;5035510;28;20413;-84
2022/08/12 04:44:07;;;;;;;1.00;0.98;;;;;;;20.82;64.37;101349.84;5051926;28;20090;-83
2022/08/12 04:46:33;;;;;;;0.75;0.55;;;;;;;21.02;63.73;101354.31;5036418;28;20035;-94
2022/08/12 04:48:59;;;;;;;0.88;0.43;;;;;;;21.04;63.44;101341.03;5035450;28;20032;-87
2022/08/12 04:51:25;;;;;;;0.85;0.85;;;;;;;21.11;62.94;101342.22;5036321;28;20467;-87
2022/08/12 04:53:51;;;;;;;0.80;0.55;;;;;;;20.86;63.73;101344.22;5052055;28;20028;-88
2022/08/12 04:56:16;;;;;;;1.08;0.70;;;;;;;20.97;63.29;101342.50;5031647;28;20476;-82
2022/08/12 04:58:42;;;;;;;1.38;1.00;;;;;;;20.92;63.45;101332.34;5048657;28;20543;-91
2022/08/12 05:01:07;;;;;;;2.17;1.83;;;;;;;20.81;63.66;101337.66;5049607;28;20063;-84
2022/08/12 05:03:36;;;;;;;1.10;1.00;;;;;;;20.80;64.27;101342.06;5050599;28;20052;-93
2022/08/12 05:06:03;;;;;;;0.77;0.65;;;;;;;20.58;64.66;101342.13;5036467;28;20040;-90
2022/08/12 05:08:29;;;;;;;0.77;0.75;;;;;;;20.68;64.39;101340.44;5068906;28;20036;-92
2022/08/12 05:10:55;;;;;;;1.20;1.13;;;;;;;20.60;64.58;101340.22;5021482;28;20516;-91
2022/08/12 05:13:23;;;;;;;3.03;1.10;;;;;;;20.66;64.41;101342.34;5054033;28;20029;-86
2022/08/12 05:15:48;;;;;;;0.60;0.60;;;;;;;20.67;64.50;101344.03;5054456;28;20497;-91
2022/08/12 05:18:14;;;;;;;0.40;0.40;;;;;;;20.71;65.54;101348.06;5037950;28;20027;-87
2022/08/12 05:20:42;;;;;;;0.50;0.50;;;;;;;21.29;63.27;101351.25;5054343;28;20033;-86
2022/08/12 05:23:14;;;;;;;0.90;0.88;;;;;;;21.80;61.83;101342.59;5072666;28;20493;-85
2022/08/12 05:25:41;;;;;;;1.23;1.13;;;;;;;22.10;60.31;101348.88;5038580;28;20020;-87
2022/08/12 05:28:07;;;;;;;0.60;0.60;;;;;;;22.42;59.77;101339.03;5038620;28;20025;-83
2022/08/12 05:30:33;;;;;;;0.57;0.50;;;;;;;22.36;59.50;101344.81;5053953;28;20043;-86
2022/08/12 05:33:05;;;;;;;0.82;0.80;;;;;;;22.20;60.02;101340.03;5053391;28;20111;-87
2022/08/12 05:35:43;;;;;;;1.00;0.88;;;;;;;22.21;60.33;101346.13;5054928;28;20028;-83
2022/08/12 05:41:04;;;;;;;0.50;0.50;;;;;;;22.23;59.99;101326.59;5057086;28;20039;-86
2022/08/12 05:43:30;;;;;;;0.40;0.40;;;;;;;22.18;60.13;101347.25;5037361;28;20032;-85
2022/08/12 05:45:56;;;;;;;1.77;1.33;;;;;;;22.14;59.91;101326.56;5037455;28;20028;-86
2022/08/12 05:48:21;;;;;;;0.52;0.52;;;;;;;22.85;58.28;101340.50;5054769;28;20029;-91
2022/08/12 05:50:47;;;;;;;0.52;0.52;;;;;;;22.97;57.57;101323.56;5073025;28;20039;-88
2022/08/12 05:53:12;;;;;;;0.57;0.57;;;;;;;22.97;57.89;101336.78;5053126;28;20054;-89
2022/08/12 05:55:39;;;;;;;1.00;0.90;;;;;;;22.93;57.23;101342.47;5036040;28;20071;-89
2022/08/12 05:58:04;;;;;;;0.80;0.80;;;;;;;23.19;56.68;101341.75;5053467;28;20045;-91
2022/08/12 06:00:30;;;;;;;0.50;0.50;;;;;;;23.14;56.80;101322.88;5036783;28;20032;-85
2022/08/12 06:03:03;;;;;;;1.45;0.68;;;;;;;23.38;55.97;101342.72;5038336;28;20485;-92
2022/08/12 06:05:37;;;;;;;0.60;0.60;;;;;;;23.58;56.93;101331.16;5055700;28;20033;-92
2022/08/12 06:08:07;;;;;;;0.77;0.70;;;;;;;23.80;56.22;101342.44;5043258;28;20536;-93
2022/08/12 06:10:33;;;;;;;0.68;0.68;;;;;;;23.69;55.36;101352.16;5046781;28;20036;-95
2022/08/12 06:13:01;;;;;;;0.98;0.82;;;;;;;23.84;55.55;101338.50;5054806;28;20102;-89
2022/08/12 06:15:26;;;;;;;0.80;0.60;;;;;;;24.04;55.00;101346.22;5070394;28;20410;-89
2022/08/12 06:17:52;;;;;;;0.45;0.45;;;;;;;24.15;53.08;101352.31;5053348;28;20058;-88
2022/08/12 06:20:17;;;;;;;1.55;1.20;;;;;;;23.91;53.39;101335.16;5053350;28;20028;-88
2022/08/12 06:22:43;;;;;;;0.70;0.60;;;;;;;23.62;54.51;101329.94;5037189;28;20123;-94
2022/08/12 06:25:09;;;;;;;1.05;0.70;;;;;;;23.88;54.99;101343.34;5079219;28;20024;-94
2022/08/12 06:27:42;;;;;;;0.82;0.70;;;;;;;24.01;53.16;101329.84;5054114;28;20140;-90
2022/08/12 06:30:09;;;;;;;0.80;0.52;;;;;;;23.97;53.65;101339.00;5054467;28;20029;-89
2022/08/12 06:32:35;;;;;;;2.10;1.08;;;;;;;23.90;53.99;101317.63;5020326;28;20024;-84
2022/08/12 06:35:01;;;;;;;1.23;1.13;;;;;;;23.85;54.37;101334.88;5036646;28;20116;-85
2022/08/12 06:37:27;;;;;;;0.68;0.60;;;;;;;23.80;54.58;101327.41;5053426;28;20468;-85
2022/08/12 06:39:52;;;;;;;1.10;0.90;;;;;;;24.11;53.22;101330.63;5053149;28;20033;-86
2022/08/12 06:45:02;;;;;;;0.82;0.73;;;;;;;24.31;53.00;101353.38;5041036;28;20185;-82
2022/08/12 06:47:28;;;;;;;1.10;1.00;;;;;;;24.33;53.52;101329.44;5052355;28;20024;-85
2022/08/12 06:49:53;;;;;;;0.63;0.63;;;;;;;24.48;52.92;101327.09;5035957;28;20474;-86
2022/08/12 06:52:23;;;;;;;0.93;0.85;;;;;;;24.32;53.98;101333.06;5035905;28;20135;-86
2022/08/12 06:54:49;;;;;;;0.63;0.63;;;;;;;24.46;53.63;101342.28;5054305;28;20029;-86
2022/08/12 06:57:15;;;;;;;1.67;1.50;;;;;;;24.41;53.90;101332.19;5051563;28;20068;-89
2022/08/12 06:59:40;;;;;;;0.70;0.68;;;;;;;24.27;54.45;101324.69;5052435;28;20028;-91
2022/08/12 07:02:07;;;;;;;0.77;0.60;;;;;;;24.52;54.26;101341.72;5019140;28;20044;-86
2022/08/12 07:04:34;;;;;;;0.98;0.90;;;;;;;24.67;52.39;101310.28;5035459;28;20028;-87
2022/08/12 07:06:59;;;;;;;0.68;0.68;;;;;;;24.74;53.19;101335.16;5052712;28;20584;-85
2022/08/12 07:09:26;;;;;;;1.05;0.90;;;;;;;24.58;52.31;101314.66;5035601;28;20024;-87
2022/08/12 07:11:51;;;;;;;0.88;0.82;;;;;;;24.56;54.00;101341.25;5035141;28;20032;-96
2022/08/12 07:14:17;;;;;;;0.50;0.50;;;;;;;24.58;54.13;101322.59;5051934;28;20032;-87
2022/08/12 07:16:52;;;;;;;0.50;0.40;;;;;;;24.94;52.87;101335.84;5052314;28;20028;-86
2022/08/12 07:19:18;;;;;;;0.85;0.85;;;;;;;25.03;52.32;101327.03;5038531;28;20024;-87
2022/08/12 07:21:44;;;;;;;1.17;1.08;;;;;;;25.20;52.38;101323.56;5052391;28;20046;-91
2022/08/12 07:24:10;;;;;;;1.02;0.90;;;;;;;25.13;52.32;101320.69;5035324;28;20028;-86
2022/08/12 07:26:40;;;;;;;1.35;1.23;;;;;;;25.18;52.19;101325.53;5016692;28;20035;-84
2022/08/12 07:29:08;;;;;;;0.70;0.60;;;;;;;25.37;52.30;101335.13;5049985;28;20040;-92
2022/08/12 07:31:38;;;;;;;1.05;0.95;;;;;;;25.35;51.22;101329.13;5034050;28;20025;-86
2022/08/12 07:34:04;;;;;;;1.17;1.08;;;;;;;25.10;51.77;101312.22;5030541;28;20070;-89
2022/08/12 07:36:29;;;;;;;1.00;0.88;;;;;;;25.26;52.58;101322.94;5049228;28;20540;-88
2022/08/12 07:38:55;;;;;;;1.55;1.20;;;;;;;25.43;51.90;101322.06;5033770;28;20037;-85
2022/08/12 07:41:24;;;;;;;1.40;1.15;;;;;;;25.48;52.42;101337.50;5067067;28;20059;-86
2022/08/12 07:43:55;;;;;;;0.88;0.88;;;;;;;25.41;52.86;101321.41;5050847;28;20505;-85
2022/08/12 07:46:26;;;;;;;1.05;0.95;;;;;;;25.32;53.06;101297.66;5051320;28;20020;-86
2022/08/12 07:48:56;;;;;;;0.60;0.60;;;;;;;25.62;52.80;101323.69;5068643;28;20060;-88
2022/08/12 07:51:22;;;;;;;0.80;0.80;;;;;;;25.75;50.96;101331.25;5052025;28;20051;-85
2022/08/12 07:53:48;;;;;;;1.23;1.13;;;;;;;25.86;51.56;101336.31;5050977;28;20040;-86
2022/08/12 07:56:14;;;;;;;0.70;0.70;;;;;;;25.97;50.83;101336.03;5035204;28;20067;-90
2022/08/12 07:58:40;;;;;;;0.77;0.77;;;;;;;25.93;49.27;101315.28;5034784;28;20417;-88
2022/08/12 08:01:10;;;;;;;0.30;0.30;;;;;;;25.98;49.92;101318.28;5035585;28;20054;-91
2022/08/12 08:04:54;;;;;;;1.00;0.90;;;;;;;26.00;47.70;101317.13;5068834;28;20029;-88
2022/08/12 08:06:24;;;;;;;0.60;0.60;;;;;;;25.87;47.70;101305.31;5040281;28;20032;-89
2022/08/12 08:08:50;;;;;;;0.57;0.57;;;;;;;25.96;47.73;101307.84;5033636;28;20488;-85
2022/08/12 08:14:02;;;;;;;0.68;0.68;;;;;;;26.10;46.96;101305.59;5039523;28;20031;-87
2022/08/12 08:16:28;;;;;;;0.80;0.80;;;;;;;26.29;46.67;101313.28;5035462;28;20038;-84
2022/08/12 08:18:54;;;;;;;0.98;0.93;;;;;;;26.41;45.89;101313.84;5035208;28;20032;-91
2022/08/12 08:21:20;;;;;;;0.50;0.45;;;;;;;26.41;45.42;101295.28;5037506;28;20112;-89
2022/08/12 08:26:31;;;;;;;1.33;1.23;;;;;;;26.80;44.96;101303.47;5040140;28;20036;-89
2022/08/12 08:28:58;;;;;;;1.55;1.25;;;;;;;26.82;44.33;101290.84;5049208;28;20025;-88
2022/08/12 08:31:24;;;;;;;0.40;0.40;;;;;;;27.02;44.04;101297.53;5048252;28;20046;-90
2022/08/12 08:33:49;;;;;;;0.63;0.50;;;;;;;27.11;43.47;101299.19;5051514;28;20032;-93
2022/08/12 08:36:16;;;;;;;0.45;0.32;;;;;;;27.12;43.51;101287.56;5048415;28;20119;-90
2022/08/12 08:38:45;;;;;;;0.70;0.52;;;;;;;26.99;43.18;101271.28;5071065;22;20039;-94
2022/08/12 08:43:58;;;;;;;0.75;0.70;;;;;;;27.20;43.31;101284.09;4981380;28;20419;-93
2022/08/12 08:46:24;;;;;;;0.57;0.57;;;;;;;27.25;42.39;101286.25;4994876;28;20093;-91
2022/08/12 08:48:50;;;;;;;1.55;1.08;;;;;;;27.20;43.28;101291.22;4999768;28;20022;-90
2022/08/12 08:51:15;;;;;;;1.50;1.05;;;;;;;27.11;42.82;101277.94;5011058;28;20029;-88
2022/08/12 08:53:42;;;;;;;0.70;0.60;;;;;;;27.09;42.91;101266.66;5013542;28;20045;-90
2022/08/12 08:56:10;;;;;;;0.82;0.70;;;;;;;27.18;42.59;101279.94;5014038;28;20029;-90
2022/08/12 08:58:39;;;;;;;0.82;0.75;;;;;;;27.02;41.87;101259.50;5000405;28;20025;-90
2022/08/12 09:01:05;;;;;;;1.05;0.70;;;;;;;27.19;42.96;101276.28;5017853;28;20064;-91
2022/08/12 09:03:32;;;;;;;1.00;0.90;;;;;;;27.39;42.92;101283.72;5014859;28;20025;-89
2022/08/12 09:05:59;;;;;;;0.80;0.80;;;;;;;27.30;43.49;101242.22;4997482;28;20052;-89
2022/08/12 09:08:25;;;;;;;0.70;0.70;;;;;;;27.46;43.13;101275.09;5014021;28;20037;-86
2022/08/12 09:10:50;;;;;;;0.50;0.50;;;;;;;27.34;43.18;101267.47;5032764;28;20117;-90
2022/08/12 09:13:28;;;;;;;0.93;0.70;;;;;;;27.43;42.89;101265.59;5000338;28;20157;-93
2022/08/12 09:15:56;;;;;;;1.70;0.90;;;;;;;27.50;42.57;101261.28;5002283;28;20060;-93
2022/08/12 09:18:23;;;;;;;1.08;0.88;;;;;;;27.79;42.35;101270.53;4998876;28;20063;-90
2022/08/12 09:20:49;;;;;;;0.55;0.50;;;;;;;28.06;41.72;101264.78;5014223;28;20512;-88
2022/08/12 09:23:16;;;;;;;0.90;0.90;;;;;;;28.19;40.76;101265.03;4998478;28;20022;-88
2022/08/12 09:25:43;;;;;;;0.60;0.60;;;;;;;28.44;40.90;101273.75;4996522;28;20132;-92
2022/08/12 09:28:09;;;;;;;2.33;1.52;;;;;;;28.44;40.59;101264.94;4998145;28;20099;-91
2022/08/12 09:30:35;;;;;;;1.40;1.23;;;;;;;28.64;39.75;101274.09;5002379;28;20037;-91
2022/08/12 09:33:01;;;;;;;0.85;0.77;;;;;;;28.77;39.80;101269.00;4997544;28;20060;-86
2022/08/12 09:35:30;;;;;;;1.08;0.98;;;;;;;28.75;39.43;101236.41;4979802;28;20075;-90
2022/08/12 09:37:55;;;;;;;1.20;1.02;;;;;;;29.16;39.26;101276.03;5014789;28;20037;-87
2022/08/12 09:40:22;;;;;;;1.17;1.00;;;;;;;29.29;38.50;101257.56;4998264;28;20525;-85
2022/08/12 09:45:32;;;;;;;0.95;0.80;;;;;;;29.66;37.54;101259.38;5012440;28;20048;-86
2022/08/12 09:48:00;;;;;;;1.10;1.00;;;;;;;29.82;36.62;101257.53;5014571;28;20482;-87
2022/08/12 09:50:26;;;;;;;1.55;1.35;;;;;;;29.82;36.89;101257.53;5014324;28;20034;-86
2022/08/12 09:53:14;;;;;;;1.02;0.93;;;;;;;29.89;36.11;101253.09;5013563;28;20033;-90
2022/08/12 09:55:47;;;;;;;0.75;0.70;;;;;;;29.98;35.78;101247.47;5030342;28;21328;-86
2022/08/12 09:58:15;;;;;;;0.77;0.65;;;;;;;30.14;35.58;101240.28;4997733;28;20041;-87
2022/08/12 10:00:45;;;;;;;0.65;0.65;;;;;;;30.25;33.64;101247.81;4998927;28;20029;-90
2022/08/12 10:03:11;;;;;;;0.68;0.68;;;;;;;30.46;34.30;101239.81;4994981;28;20529;-90
2022/08/12 10:05:42;;;;;;;0.88;0.80;;;;;;;30.37;34.04;101238.28;5031588;28;20025;-86
2022/08/12 10:08:09;;;;;;;1.00;0.90;;;;;;;30.35;34.08;101210.94;4997607;28;20033;-88
2022/08/12 10:13:40;;;;;;;0.45;0.45;;;;;;;30.52;33.81;101212.34;5002742;28;20040;-83
2022/08/12 10:16:23;;;;;;;0.52;0.52;;;;;;;30.48;32.98;101216.44;5002758;28;20465;-85
2022/08/12 10:18:52;;;;;;;0.68;0.63;;;;;;;30.44;33.09;101219.66;4997275;28;20037;-85
2022/08/12 10:21:20;;;;;;;0.55;0.52;;;;;;;30.35;33.30;101215.47;5011806;28;20032;-88
2022/08/12 10:23:46;;;;;;;0.57;0.57;;;;;;;30.42;32.97;101213.69;5011161;28;21883;-85
2022/08/12 10:31:48;;;;;;;1.08;0.98;;;;;;;30.65;32.95;101210.84;5013957;28;20036;-86
2022/08/12 10:34:13;;;;;;;1.15;0.88;;;;;;;30.49;32.41;101179.88;5013769;28;20521;-88
2022/08/12 10:36:40;;;;;;;0.85;0.85;;;;;;;30.72;32.28;101201.88;5016948;28;20037;-84
2022/08/12 10:39:06;;;;;;;1.65;0.90;;;;;;;30.68;32.00;101192.63;4997120;28;20025;-86
2022/08/12 10:44:16;;;;;;;1.75;1.02;;;;;;;30.76;31.11;101203.13;5002361;28;20372;-84
2022/08/12 10:46:41;;;;;;;0.55;0.52;;;;;;;30.82;30.75;101196.19;5031511;28;20064;-92
2022/08/12 10:49:07;;;;;;;0.73;0.70;;;;;;;30.98;31.09;101195.91;4994745;28;20033;-85
2022/08/12 10:51:32;;;;;;;0.88;0.85;;;;;;;31.11;30.89;101190.66;5020453;28;20487;-83
2022/08/12 10:53:58;;;;;;;0.63;0.63;;;;;;;31.37;30.61;101191.88;5009455;28;20111;-85
2022/08/12 10:56:24;;;;;;;0.80;0.70;;;;;;;31.57;30.52;101190.13;5008070;28;20041;-87
2022/08/12 10:58:50;;;;;;;0.70;0.70;;;;;;;31.72;29.65;101170.41;4978226;28;20143;-85
2022/08/12 11:01:17;;;;;;;0.98;0.77;;;;;;;31.90;29.60;101186.75;5000817;28;20040;-84
2022/08/12 11:03:42;;;;;;;1.83;1.10;;;;;;;31.93;29.68;101155.06;5006323;28;20018;-84
2022/08/12 11:06:09;;;;;;;1.13;1.02;;;;;;;32.00;29.65;101176.47;4996994;28;20088;-88
2022/08/12 11:08:37;;;;;;;1.20;1.00;;;;;;;31.94;29.79;101163.91;4984861;28;20037;-83
2022/08/12 11:11:07;;;;;;;1.55;0.82;;;;;;;32.06;29.97;101174.88;4995039;28;20087;-88
2022/08/12 11:13:35;;;;;;;0.90;0.82;;;;;;;32.03;29.71;101154.66;4996229;28;20025;-81
2022/08/12 11:16:01;;;;;;;0.90;0.90;;;;;;;31.98;29.40;101165.16;4995435;28;20079;-92
2022/08/12 11:18:27;;;;;;;0.75;0.75;;;;;;;32.03;29.47;101169.91;4980118;28;20025;-86
2022/08/12 11:20:53;;;;;;;0.77;0.70;;;;;;;31.87;29.51;101144.34;4975738;28;20040;-85
2022/08/12 11:23:19;;;;;;;0.70;0.65;;;;;;;31.91;29.39;101142.91;5009241;28;20018;-85
2022/08/12 11:25:45;;;;;;;0.85;0.63;;;;;;;31.87;29.51;101147.03;4992762;28;20065;-83
2022/08/12 11:28:11;;;;;;;0.80;0.80;;;;;;;31.96;29.10;101132.44;4992695;28;20112;-84
2022/08/12 11:30:37;;;;;;;0.77;0.73;;;;;;;32.14;29.21;101142.53;4989739;28;20128;-85
2022/08/12 11:33:03;;;;;;;0.85;0.82;;;;;;;32.10;28.87;101152.81;4996561;28;20040;-86
2022/08/12 11:35:28;;;;;;;0.95;0.75;;;;;;;32.03;28.94;101146.63;4980389;28;20033;-85
2022/08/12 11:37:54;;;;;;;0.73;0.68;;;;;;;32.14;28.90;101137.19;4996417;28;20029;-84
2022/08/12 11:40:19;;;;;;;0.52;0.52;;;;;;;32.21;28.69;101135.34;4980170;28;20525;-85
2022/08/12 11:42:45;;;;;;;0.52;0.52;;;;;;;32.27;28.80;101141.75;5008588;28;21224;-86
2022/08/12 11:45:10;;;;;;;1.63;1.10;;;;;;;32.21;29.28;101130.81;5013683;28;20033;-87
2022/08/12 11:47:37;;;;;;;1.20;0.90;;;;;;;32.16;28.85;101114.56;5009973;28;20061;-86
2022/08/12 11:50:03;;;;;;;2.10;1.25;;;;;;;32.38;28.57;101133.13;4994123;28;20064;-89
2022/08/12 11:52:28;;;;;;;1.05;0.65;;;;;;;32.39;28.36;101121.38;4996052;28;20022;-87
2022/08/12 11:54:54;;;;;;;1.05;0.82;;;;;;;32.49;28.30;101130.63;5011949;28;20475;-82
2022/08/12 11:57:19;;;;;;;1.25;1.15;;;;;;;32.59;27.82;101118.69;5011265;28;20039;-86
2022/08/12 11:59:45;;;;;;;1.23;1.00;;;;;;;32.34;27.92;101086.34;5002113;28;20037;-85
2022/08/12 12:02:10;;;;;;;1.05;1.02;;;;;;;32.73;27.72;101106.91;5010146;28;20025;-85
2022/08/12 12:04:36;;;;;;;0.65;0.63;;;;;;;32.72;27.21;101113.31;5011549;28;20021;-82
2022/08/12 12:07:01;;;;;;;0.95;0.80;;;;;;;32.85;27.12;101112.50;5010096;28;20057;-85
2022/08/12 12:12:03;;;;;;;0.77;0.77;;;;;;;32.43;28.08;101077.91;5496298;23;20066;-86
2022/08/12 12:14:28;;;;;;;0.77;0.70;;;;;;;32.54;27.90;101096.00;4982232;23;20062;-83
2022/08/12 12:16:54;;;;;;;0.77;0.60;;;;;;;32.38;28.06;101079.56;4945548;28;20067;-84
2022/08/12 12:19:19;;;;;;;0.77;0.77;;;;;;;32.46;27.78;101093.56;4951389;28;20038;-84
2022/08/12 12:21:45;;;;;;;0.80;0.80;;;;;;;32.32;27.71;101075.03;4958345;28;20492;-85
2022/08/12 12:24:10;;;;;;;0.57;0.57;;;;;;;32.25;28.25;101089.22;4955948;28;20566;-85
2022/08/12 12:26:36;;;;;;;0.60;0.60;;;;;;;32.30;28.48;101079.78;4960090;28;20023;-86
2022/08/12 12:29:02;;;;;;;1.00;0.90;;;;;;;32.51;28.01;101090.25;4945678;28;20023;-91
2022/08/12 12:31:27;;;;;;;1.00;0.90;;;;;;;32.51;27.94;101084.91;4945726;28;20559;-86
2022/08/12 12:33:53;;;;;;;0.77;0.70;;;;;;;32.47;27.61;101055.03;4964407;28;20046;-86
2022/08/12 12:36:18;;;;;;;0.60;0.60;;;;;;;32.41;27.81;101065.75;4961774;28;20059;-85
2022/08/12 12:38:44;;;;;;;1.00;0.73;;;;;;;32.44;27.71;101084.91;4961220;28;20028;-84
2022/08/12 12:41:09;;;;;;;0.65;0.65;;;;;;;32.40;27.91;101081.00;4960034;28;20027;-84
2022/08/12 12:43:35;;;;;;;1.02;0.80;;;;;;;32.23;27.72;101052.97;4960199;28;20046;-84
2022/08/12 12:46:00;;;;;;;0.50;0.50;;;;;;;32.32;27.32;101072.34;4964416;28;20158;-85
2022/08/12 12:48:26;;;;;;;0.50;0.50;;;;;;;32.41;27.73;101068.44;4953219;29;20035;-91
2022/08/12 12:53:39;;;;;;;0.73;0.73;;;;;;;32.25;27.34;101059.78;4950507;28;20126;-84
2022/08/12 12:56:04;;;;;;;0.50;0.50;;;;;;;32.02;27.55;101040.63;4953997;28;20023;-83
2022/08/12 12:58:30;;;;;;;1.80;0.63;;;;;;;32.09;27.61;101038.78;4931675;29;20039;-86
2022/08/12 13:00:58;;;;;;;0.70;0.70;;;;;;;32.21;27.53;101055.03;4937205;29;20051;-84
2022/08/12 13:03:24;;;;;;;0.70;0.63;;;;;;;31.96;27.68;101006.69;4942761;28;20117;-84
2022/08/12 13:05:51;;;;;;;0.95;0.88;;;;;;;32.17;27.44;101035.91;4969796;28;20125;-85
2022/08/12 13:08:24;;;;;;;0.47;0.47;;;;;;;32.18;26.79;101032.19;4972967;28;20039;-84
2022/08/12 13:10:53;;;;;;;0.80;0.80;;;;;;;32.32;26.75;101032.19;4987555;28;20039;-82
2022/08/12 13:13:19;;;;;;;0.50;0.50;;;;;;;32.32;26.95;101026.84;4956652;28;20054;-84
2022/08/12 13:15:48;;;;;;;0.50;0.50;;;;;;;32.28;26.95;101026.41;4955456;28;20027;-82
2022/08/12 13:18:15;;;;;;;0.50;0.50;;;;;;;32.12;26.63;101014.28;4953060;28;20042;-82
2022/08/12 13:20:42;;;;;;;0.73;0.73;;;;;;;32.11;26.68;101017.97;4951108;29;20023;-85
2022/08/12 13:23:08;;;;;;;1.05;0.95;;;;;;;32.07;26.80;101005.22;4940888;28;20039;-86
2022/08/12 13:25:35;;;;;;;1.10;1.00;;;;;;;32.02;26.65;101000.47;4954213;28;20031;-83
2022/08/12 13:28:02;;;;;;;0.45;0.45;;;;;;;32.00;26.24;101007.09;4955723;28;20459;-83
2022/08/12 13:30:28;;;;;;;0.50;0.50;;;;;;;31.96;26.08;101006.69;4972373;28;20400;-83
2022/08/12 13:32:57;;;;;;;1.15;1.05;;;;;;;31.93;26.04;101001.72;4956143;28;20038;-84
2022/08/12 13:35:34;;;;;;;0.40;0.40;;;;;;;31.77;26.25;100994.94;4954654;28;20029;-83
2022/08/12 13:38:01;;;;;;;0.82;0.80;;;;;;;31.77;26.22;100994.13;4956867;28;20026;-83
2022/08/12 13:40:28;;;;;;;1.02;0.93;;;;;;;31.62;26.65;100989.75;4948100;29;20049;-86
2022/08/12 13:42:57;;;;;;;0.73;0.73;;;;;;;31.60;26.58;100991.81;4944172;28;20069;-84
2022/08/12 13:45:33;;;;;;;0.93;0.80;;;;;;;31.53;26.73;100993.63;4956615;28;20030;-83
2022/08/12 13:48:04;;;;;;;1.20;1.00;;;;;;;31.49;27.53;100980.91;4956833;28;20488;-84
2022/08/12 13:50:31;;;;;;;;;;;;;;;31.48;27.33;100988.09;4956849;28;20026;-86
